Data for 10/27/2010

Time Sea-Level Adjusted Pressure Absolute Pressure Temperature Relative Humidity Dew Point   
(mb) (inHg) (mb) (inHg) (C) (F) (%) (C) (F)
00:05 1014 29.94 844 24.92 0.8 33.4 69 -4.2 24.4
00:10 1014 29.94 844 24.92 0.9 33.5 68 -4.4 24.1
00:15 1014 29.94 844 24.92 0.9 33.6 66 -4.7 23.6
00:20 1014 29.94 844 24.92 1 33.7 65 -4.8 23.4
00:25 1015 29.97 844 24.92 1 33.8 66 -4.5 23.8
00:30 1015 29.97 844 24.92 1 33.9 67 -4.4 24.1
00:35 1015 29.97 844 24.92 1.2 34.1 67 -4.3 24.2
00:40 1015 29.97 844 24.92 1 33.8 77 -2.5 27.5
00:45 1015 29.97 844 24.92 0.3 32.6 76 -3.3 26
00:50 1015 29.97 844 24.92 0.1 32.1 77 -3.4 25.9
00:55 1015 29.97 844 24.92 0.2 32.4 75 -3.8 25.2
01:00 1015 29.97 844 24.92 0.5 33 71 -4.1 24.7
01:05 1015 29.97 844 24.92 0.8 33.4 69 -4.3 24.2
01:10 1015 29.97 844 24.92 1 33.7 68 -4.3 24.2
01:15 1015 29.97 845 24.95 1.1 34 66 -4.6 23.8
01:20 1015 29.97 845 24.95 1.1 33.9 68 -4.3 24.3
01:25 1015 29.97 845 24.95 0.9 33.6 68 -4.4 24.1
01:30 1016 30 845 24.95 0.8 33.4 69 -4.3 24.2
01:35 1016 30 845 24.95 0.7 33.2 69 -4.3 24.3
01:40 1016 30 845 24.95 0.6 33.1 69 -4.4 24.1
01:45 1016 30 845 24.95 0.6 33.1 69 -4.4 24.1
01:50 1016 30 845 24.95 0.7 33.2 69 -4.4 24
01:55 1016 30 845 24.95 0.7 33.3 68 -4.6 23.7
02:00 1016 30 845 24.95 0.8 33.4 67 -4.6 23.8
02:05 1016 30 845 24.95 0.9 33.6 65 -5 23
02:10 1016 30 845 24.95 1 33.8 65 -4.8 23.3
02:15 1016 30 845 24.95 1 33.8 64 -5 23
02:20 1016 30 845 24.95 1 33.8 64 -5.1 22.7
02:25 1016 30 845 24.95 1.1 33.9 63 -5.3 22.5
02:30 1016 30 845 24.95 1.1 34 63 -5.2 22.7
02:35 1016 30 845 24.95 1.1 34 63 -5.2 22.7
02:40 1016 30 845 24.95 1.1 34 63 -5.1 22.9
02:45 1016 30 846 24.98 1.1 33.9 63 -5.1 22.8
02:50 1016 30 846 24.98 1.1 34 63 -5.2 22.7
02:55 1016 30 846 24.98 1.1 34 63 -5.1 22.7
03:00 1017 30.03 846 24.98 1.1 34 64 -5 23.1
03:05 1017 30.03 846 24.98 1.1 34 64 -4.9 23.1
03:10 1017 30.03 846 24.98 1.1 34 64 -5 22.9
03:15 1017 30.03 846 24.98 1.1 34 64 -5 23
03:20 1017 30.03 846 24.98 1.2 34.1 64 -5 23
03:25 1017 30.03 846 24.98 1.1 34 63 -5.1 22.8
03:30 1017 30.03 846 24.98 1.1 34.1 63 -5.1 22.7
03:35 1017 30.03 846 24.98 1.1 34.1 63 -5.1 22.9
03:40 1017 30.03 846 24.98 1.1 34.1 64 -5 23.1
03:45 1017 30.03 846 24.98 1.1 34 62 -5.4 22.3
03:50 1017 30.03 846 24.98 1.1 34 62 -5.3 22.4
03:55 1017 30.03 846 24.98 1.1 34 64 -5 22.9
04:00 1017 30.03 846 24.98 1.1 34 62 -5.3 22.4
04:05 1017 30.03 846 24.98 1.2 34.1 61 -5.5 22.1
04:10 1017 30.03 846 24.98 1.3 34.3 61 -5.4 22.2
04:15 1017 30.03 846 24.98 1.3 34.4 62 -5.3 22.5
04:20 1017 30.03 846 24.98 1.4 34.4 60 -5.5 22.1
04:25 1017 30.03 847 25.01 1.4 34.6 58 -5.9 21.4
04:30 1017 30.03 846 24.98 1.4 34.5 60 -5.5 22
04:35 1017 30.03 847 25.01 1.3 34.3 59 -5.9 21.4
04:40 1017 30.03 847 25.01 1.4 34.4 60 -5.5 22.1
04:45 1017 30.03 847 25.01 1.4 34.5 60 -5.6 21.9
04:50 1017 30.03 847 25.01 1.3 34.4 60 -5.7 21.7
04:55 1017 30.03 847 25.01 1.3 34.3 60 -5.6 21.9
05:00 1018 30.06 847 25.01 1.3 34.3 60 -5.7 21.7
05:05 1018 30.06 847 25.01 1.3 34.4 59 -5.9 21.4
05:10 1018 30.06 847 25.01 1.4 34.6 58 -5.9 21.3
05:15 1018 30.06 847 25.01 1.5 34.7 57 -6 21.1
05:20 1018 30.06 847 25.01 1.4 34.6 58 -5.9 21.5
05:25 1018 30.06 847 25.01 1.4 34.6 59 -5.8 21.6
05:30 1018 30.06 847 25.01 1.4 34.5 59 -5.7 21.8
05:35 1018 30.06 847 25.01 1.4 34.5 59 -5.7 21.8
05:40 1018 30.06 847 25.01 1.4 34.6 59 -5.8 21.6
05:45 1018 30.06 847 25.01 1.5 34.7 58 -5.9 21.4
05:50 1018 30.06 848 25.04 1.5 34.8 58 -5.8 21.5
05:55 1018 30.06 848 25.04 1.5 34.8 58 -5.8 21.6
06:00 1019 30.09 848 25.04 1.5 34.7 58 -5.9 21.4
06:05 1019 30.09 848 25.04 1.5 34.8 58 -5.9 21.3
06:10 1019 30.09 848 25.04 1.5 34.7 58 -5.9 21.3
06:15 1019 30.09 848 25.04 1.5 34.8 58 -5.8 21.6
06:20 1019 30.09 848 25.04 1.5 34.7 58 -5.9 21.4
06:25 1019 30.09 848 25.04 1.5 34.7 59 -5.7 21.7
06:30 1019 30.09 848 25.04 1.5 34.8 58 -6 21.3
06:35 1019 30.09 848 25.04 1.5 34.8 58 -5.9 21.4
06:40 1019 30.09 848 25.04 1.5 34.8 57 -6 21.2
06:45 1019 30.09 848 25.04 1.6 34.8 57 -6 21.2
06:50 1019 30.09 849 25.07 1.6 34.8 58 -5.8 21.6
06:55 1019 30.09 849 25.07 1.6 34.9 58 -5.9 21.4
07:00 1020 30.12 849 25.07 1.6 34.8 59 -5.6 21.9
07:05 1020 30.12 849 25.07 1.5 34.8 59 -5.6 22
07:10 1020 30.12 849 25.07 1.5 34.7 59 -5.7 21.7
07:15 1020 30.12 849 25.07 1.5 34.6 59 -5.6 21.9
07:20 1020 30.12 849 25.07 1.4 34.6 60 -5.6 22
07:25 1020 30.12 849 25.07 1.4 34.6 58 -6 21.1
07:30 1020 30.12 849 25.07 1.4 34.5 59 -5.8 21.6
07:35 1020 30.12 849 25.07 1.4 34.5 59 -5.8 21.6
07:40 1020 30.12 849 25.07 1.4 34.5 59 -5.7 21.8
07:45 1020 30.12 849 25.07 1.4 34.6 59 -5.8 21.5
07:50 1020 30.12 849 25.07 1.4 34.5 59 -5.8 21.6
07:55 1020 30.12 849 25.07 1.3 34.4 59 -5.7 21.7
08:00 1020 30.12 850 25.1 1.4 34.4 59 -5.8 21.6
08:05 1020 30.12 850 25.1 1.4 34.5 59 -5.8 21.6
08:10 1020 30.12 850 25.1 1.4 34.6 60 -5.5 22
08:15 1021 30.15 850 25.1 1.5 34.7 63 -4.9 23.2
08:20 1021 30.15 850 25.1 1.4 34.5 63 -4.8 23.3
08:25 1021 30.15 850 25.1 1.3 34.3 63 -4.9 23.2
08:30 1021 30.15 850 25.1 1.3 34.3 65 -4.7 23.6
08:35 1021 30.15 850 25.1 1.3 34.4 65 -4.6 23.6
08:40 1021 30.15 850 25.1 1.3 34.3 64 -4.8 23.3
08:45 1021 30.15 850 25.1 1.3 34.3 63 -4.9 23.2
08:50 1021 30.15 850 25.1 1.3 34.4 62 -5.1 22.8
08:55 1021 30.15 850 25.1 1.4 34.5 62 -5.2 22.7
09:00 1021 30.15 851 25.13 1.4 34.6 60 -5.5 22.2
09:05 1021 30.15 851 25.13 1.6 34.8 61 -5.2 22.7
09:10 1021 30.15 851 25.13 1.6 34.8 65 -4.4 24.1
09:15 1022 30.18 851 25.13 1.4 34.5 65 -4.5 23.8
09:20 1022 30.18 851 25.13 1.4 34.5 62 -5.1 22.7
09:25 1022 30.18 851 25.13 1.5 34.7 62 -4.9 23.1
09:30 1022 30.18 851 25.13 1.6 34.9 61 -5.1 22.9
09:35 1022 30.18 851 25.13 1.7 35 61 -5 23
09:40 1022 30.18 851 25.13 1.8 35.2 60 -5.1 22.8
09:45 1022 30.18 851 25.13 1.9 35.5 60 -5 23.1
09:50 1022 30.18 851 25.13 2.1 35.7 60 -5 23
09:55 1022 30.18 851 25.13 2.1 35.9 60 -4.8 23.4
10:00 1022 30.18 851 25.13 2.2 35.9 59 -5 23.1
10:05 1022 30.18 852 25.16 2.3 36.2 58 -5.1 22.8
10:10 1022 30.18 852 25.16 2.4 36.4 58 -5 22.9
10:15 1022 30.18 852 25.16 2.5 36.5 57 -5.2 22.7
10:20 1023 30.21 852 25.16 2.7 36.8 57 -5 22.9
10:25 1023 30.21 852 25.16 2.9 37.3 54 -5.4 22.3
10:30 1023 30.21 852 25.16 3.2 37.7 53 -5.5 22.1
10:35 1023 30.21 852 25.16 3.2 37.7 54 -5.4 22.4
10:40 1023 30.21 852 25.16 3.4 38.2 54 -5.1 22.8
10:45 1023 30.21 852 25.16 4 39.2 48 -5.9 21.4
10:50 1023 30.21 852 25.16 4.5 40 49 -5.3 22.5
10:55 1023 30.21 852 25.16 4.3 39.8 49 -5.4 22.3
11:00 1023 30.21 852 25.16 4.4 40 46 -6.2 20.8
11:05 1023 30.21 852 25.16 4.6 40.3 48 -5.4 22.2
11:10 1023 30.21 852 25.16 4.6 40.2 48 -5.7 21.8
11:15 1023 30.21 852 25.16 4.4 40 46 -6.2 20.8
11:20 1023 30.21 852 25.16 4.3 39.7 48 -5.8 21.5
11:25 1023 30.21 852 25.16 4.4 39.9 48 -5.6 21.9
11:30 1023 30.21 852 25.16 4.4 39.9 55 -3.9 24.9
11:35 1023 30.21 852 25.16 4.5 40.1 43 -7 19.5
11:40 1023 30.21 852 25.16 4.3 39.8 42 -7.6 18.4
11:45 1023 30.21 852 25.16 4.4 40 41 -7.7 18.2
11:50 1023 30.21 852 25.16 4.5 40.2 41 -7.7 18.2
11:55 1023 30.21 852 25.16 4.9 40.8 39 -8 17.6
12:00 1023 30.21 852 25.16 5.7 42.3 38 -7.4 18.8
12:05 1023 30.21 852 25.16 6.6 43.8 34 -8 17.5
12:10 1023 30.21 852 25.16 6.8 44.3 33 -8.2 17.2
12:15 1023 30.21 852 25.16 6.2 43.1 35 -8.1 17.4
12:20 1023 30.21 853 25.19 5.6 42.1 36 -8.3 17
12:25 1023 30.21 853 25.19 5.6 42 37 -8.2 17.3
12:30 1023 30.21 853 25.19 5.5 41.9 36 -8.5 16.7
12:35 1023 30.21 853 25.19 5.4 41.7 37 -8.1 17.3
12:40 1023 30.21 853 25.19 5.2 41.4 37 -8.4 16.9
12:45 1024 30.24 853 25.19 5 40.9 38 -8.1 17.4
12:50 1024 30.24 853 25.19 5 41.1 37 -8.5 16.6
12:55 1024 30.24 853 25.19 4.9 40.9 37 -8.6 16.6
13:00 1024 30.24 853 25.19 4.9 40.9 36 -8.9 16
13:05 1024 30.24 853 25.19 4.9 40.8 36 -8.9 16
13:10 1024 30.24 853 25.19 5.1 41.1 35 -9 15.7
13:15 1023 30.21 853 25.19 5.1 41.2 35 -9.2 15.4
13:20 1024 30.24 853 25.19 5.6 42.1 34 -9.2 15.5
13:25 1024 30.24 853 25.19 5.9 42.7 33 -9.2 15.5
13:30 1024 30.24 853 25.19 6.3 43.3 31 -9.6 14.7
13:35 1024 30.24 853 25.19 6.2 43.1 32 -9.5 14.9
13:40 1024 30.24 853 25.19 5.9 42.7 33 -9.2 15.4
13:45 1024 30.24 853 25.19 6.1 43 31 -9.8 14.3
13:50 1024 30.24 853 25.19 6.3 43.4 31 -9.7 14.6
13:55 1024 30.24 853 25.19 6.2 43.1 32 -9.2 15.4
14:00 1024 30.24 853 25.19 6.1 42.9 31 -9.7 14.6
14:05 1024 30.24 853 25.19 6 42.8 32 -9.5 14.9
14:10 1023 30.21 853 25.19 6 42.8 31 -10 14.1
14:15 1024 30.24 853 25.19 6.4 43.5 30 -9.7 14.5
14:20 1024 30.24 853 25.19 6.9 44.4 31 -9.2 15.5
14:25 1024 30.24 853 25.19 6.6 43.9 32 -9.1 15.7
14:30 1024 30.24 853 25.19 6.2 43.1 33 -9.1 15.6
14:35 1024 30.24 853 25.19 6.7 44.1 30 -9.6 14.7
14:40 1024 30.24 853 25.19 6.8 44.2 30 -9.4 15
14:45 1024 30.24 853 25.19 6.3 43.4 31 -9.5 15
14:50 1024 30.24 853 25.19 6.4 43.5 31 -9.6 14.8
14:55 1024 30.24 853 25.19 7.3 45.1 29 -9.5 15
15:00 1024 30.24 853 25.19 7.6 45.7 28 -9.6 14.7
15:05 1024 30.24 853 25.19 7.5 45.5 29 -9.3 15.2
15:10 1024 30.24 853 25.19 7.7 45.8 28 -9.6 14.6
15:15 1024 30.24 853 25.19 7.9 46.2 28 -9.5 15
15:20 1024 30.24 853 25.19 7.9 46.3 28 -9.4 15
15:25 1024 30.24 853 25.19 7.9 46.2 28 -9.4 15.1
15:30 1024 30.24 853 25.19 6.8 44.2 30 -9.5 14.9
15:35 1024 30.24 853 25.19 6.5 43.6 31 -9.6 14.6
15:40 1024 30.24 853 25.19 6.5 43.7 30 -10 14
15:45 1024 30.24 853 25.19 6.4 43.6 29 -10.3 13.4
15:50 1024 30.24 853 25.19 6.8 44.3 28 -10.5 13
15:55 1024 30.24 853 25.19 7.5 45.5 28 -10 14
16:00 1024 30.24 853 25.19 7.8 46 28 -9.7 14.5
16:05 1024 30.24 853 25.19 7.1 44.8 29 -9.8 14.4
16:10 1024 30.24 853 25.19 6.4 43.6 29 -10.1 13.7
16:15 1024 30.24 853 25.19 6.4 43.6 29 -10.3 13.5
16:20 1024 30.24 853 25.19 6.9 44.3 28 -10.5 13.2
16:25 1024 30.24 853 25.19 7 44.6 30 -9.5 15
16:30 1024 30.24 853 25.19 6.8 44.3 29 -9.9 14.2
16:35 1024 30.24 853 25.19 6.8 44.3 29 -10.1 13.9
16:40 1024 30.24 853 25.19 7.2 44.9 29 -9.6 14.8
16:45 1024 30.24 854 25.22 7.1 44.8 28 -10 14
16:50 1024 30.24 854 25.22 6.8 44.2 29 -9.9 14.2
16:55 1024 30.24 854 25.22 6.7 44 29 -10.3 13.4
17:00 1024 30.24 854 25.22 6.8 44.3 29 -10 13.9
17:05 1024 30.24 854 25.22 6.8 44.3 29 -9.9 14.2
17:10 1025 30.27 854 25.22 6.4 43.5 31 -9.6 14.6
17:15 1025 30.27 854 25.22 6.1 42.9 32 -9.5 15
17:20 1025 30.27 854 25.22 6.2 43.2 30 -10.1 13.7
17:25 1025 30.27 854 25.22 6.6 43.9 30 -9.7 14.6
17:30 1025 30.27 854 25.22 6.6 43.9 30 -9.7 14.6
17:35 1025 30.27 854 25.22 6.6 43.9 30 -9.7 14.5
17:40 1024 30.24 854 25.22 6.4 43.5 30 -10 14
17:45 1025 30.27 854 25.22 6.4 43.5 31 -9.6 14.8
17:50 1024 30.24 854 25.22 6.3 43.3 31 -9.5 14.8
17:55 1024 30.24 854 25.22 6.2 43.2 31 -9.5 14.9
18:00 1024 30.24 854 25.22 6.2 43.2 32 -9.1 15.5
18:05 1024 30.24 854 25.22 6.1 42.9 32 -9.3 15.3
18:10 1024 30.24 854 25.22 5.4 41.6 34 -9.2 15.4
18:15 1024 30.24 854 25.22 5 41 36 -8.9 16
18:20 1024 30.24 854 25.22 4.8 40.6 36 -9 15.8
18:25 1024 30.24 854 25.22 4.8 40.6 36 -9 15.9
18:30 1024 30.24 854 25.22 4.4 39.9 38 -8.8 16.2
18:35 1024 30.24 854 25.22 4.1 39.4 39 -8.6 16.5
18:40 1024 30.24 854 25.22 3.8 38.9 40 -8.5 16.7
18:45 1024 30.24 854 25.22 3.8 38.9 39 -9 15.7
18:50 1024 30.24 854 25.22 3.9 39 41 -8.2 17.3
18:55 1025 30.27 854 25.22 3.8 38.8 41 -8.5 16.8
19:00 1025 30.27 854 25.22 3.8 38.9 44 -7.2 19
19:05 1025 30.27 854 25.22 3.2 37.8 47 -7 19.5
19:10 1025 30.27 854 25.22 2.7 36.8 50 -6.8 19.7
19:15 1025 30.27 854 25.22 2.5 36.5 47 -7.6 18.4
19:20 1025 30.27 854 25.22 2.8 37 46 -7.8 18
19:25 1025 30.27 854 25.22 3.1 37.5 46 -7.4 18.6
19:30 1025 30.27 854 25.22 2.9 37.2 48 -7.1 19.2
19:35 1025 30.27 854 25.22 2.5 36.5 50 -7 19.4
19:40 1025 30.27 854 25.22 2.1 35.7 52 -6.8 19.7
19:45 1025 30.27 854 25.22 1.9 35.3 50 -7.4 18.7
19:50 1025 30.27 854 25.22 2.1 35.8 50 -7.2 19
19:55 1025 30.27 854 25.22 2.2 36 51 -6.8 19.7
20:00 1025 30.27 854 25.22 2.2 35.9 53 -6.5 20.3
20:05 1025 30.27 854 25.22 2 35.7 54 -6.2 20.8
20:10 1025 30.27 854 25.22 1.8 35.3 54 -6.6 20.1
20:15 1025 30.27 854 25.22 2.2 35.9 51 -6.9 19.6
20:20 1025 30.27 854 25.22 2.1 35.7 51 -7 19.4
20:25 1025 30.27 854 25.22 2 35.5 50 -7.4 18.7
20:30 1025 30.27 854 25.22 2.1 35.8 49 -7.4 18.6
20:35 1025 30.27 854 25.22 2.2 35.9 49 -7.5 18.4
20:40 1025 30.27 854 25.22 2.3 36.1 48 -7.6 18.3
20:45 1025 30.27 854 25.22 2.3 36.1 48 -7.6 18.4
20:50 1025 30.27 854 25.22 2.2 36 48 -7.6 18.4
20:55 1025 30.27 854 25.22 1.7 35.1 53 -6.9 19.6
21:00 1025 30.27 854 25.22 1 33.8 56 -6.8 19.8
21:05 1025 30.27 855 25.25 0.5 32.9 58 -6.9 19.5
21:10 1025 30.27 855 25.25 0.6 33.1 57 -7 19.5
21:15 1025 30.27 855 25.25 0.7 33.3 57 -6.9 19.5
21:20 1025 30.27 855 25.25 1 33.8 55 -7 19.3
21:25 1025 30.27 855 25.25 1.3 34.3 54 -6.9 19.6
21:30 1025 30.27 855 25.25 1.3 34.4 56 -6.4 20.4
21:35 1025 30.27 855 25.25 1.5 34.6 53 -7 19.4
21:40 1025 30.27 855 25.25 1.6 34.9 50 -7.7 18.1
21:45 1025 30.27 855 25.25 1.8 35.3 52 -7.1 19.2
21:50 1025 30.27 855 25.25 1.4 34.5 54 -6.9 19.5
21:55 1025 30.27 855 25.25 0.8 33.4 57 -6.8 19.8
22:00 1025 30.27 855 25.25 0.5 32.8 56 -7.4 18.7
22:05 1026 30.3 855 25.25 0.7 33.3 54 -7.6 18.3
22:10 1026 30.3 855 25.25 1.2 34.2 50 -8 17.6
22:15 1026 30.3 855 25.25 1.4 34.6 51 -7.7 18.2
22:20 1026 30.3 855 25.25 1.4 34.5 50 -7.9 17.8
22:25 1026 30.3 855 25.25 1.4 34.6 51 -7.7 18.2
22:30 1026 30.3 855 25.25 1.3 34.3 53 -7.3 18.8
22:35 1026 30.3 855 25.25 0.8 33.4 55 -7.1 19.2
22:40 1026 30.3 855 25.25 0.2 32.4 56 -7.4 18.6
22:45 1026 30.3 855 25.25 0 32.1 58 -7.2 19.1
22:50 1026 30.3 855 25.25 -0 31.9 58 -7.4 18.6
22:55 1025 30.27 855 25.25 -0.1 31.9 60 -7 19.4
23:00 1025 30.27 855 25.25 -0.3 31.4 60 -7.1 19.2
23:05 1025 30.27 855 25.25 -0.3 31.5 59 -7.3 18.8
23:10 1025 30.27 855 25.25 -0.2 31.7 59 -7.3 18.8
23:15 1026 30.3 855 25.25 -0.1 31.9 58 -7.4 18.6
23:20 1026 30.3 855 25.25 -0.1 31.8 60 -7.1 19.3
23:25 1026 30.3 855 25.25 -0.3 31.5 60 -7.1 19.2
23:30 1026 30.3 855 25.25 -0.4 31.2 60 -7.3 18.8
23:35 1026 30.3 855 25.25 -0.3 31.5 59 -7.4 18.7
23:40 1026 30.3 855 25.25 -0.3 31.4 59 -7.3 18.9
23:45 1026 30.3 855 25.25 -0.4 31.3 59 -7.4 18.7
23:50 1026 30.3 855 25.25 -0.4 31.2 60 -7.4 18.8
23:55 1026 30.3 855 25.25 -0.5 31.1 59 -7.5 18.5
24:00 1026 30.3 855 25.25 -0.6 31 60 -7.4 18.7